Ana Sayfa
METAR-TAF:

METAR-TAF

Havaalanları :

Grayling Army Airfield

Grayling, Michigan, Amerika Birleşik Devletleri

Enlem: 44-40-49N, Boylam: 084-43-44W, yükseklik: 353 m

Güncel hava durumu gözlemi

Rapor saat 06:58 UTC de 25 dakika önce yapıldı.
Sakin rüzgar
Sıcaklık -5°C
Nem 93%
Basınç 1020 hPa
Görüş mesafesi: 16.1 km

METAR: KGOV 290658Z AUTO 00000KT 10SM M M05/M06 A3011 RMK AO2 SLP220 T10471065 $

Saat: 02:23 (07:23 UTC)


TAF: eksik

4.000'den fazla havaalanı için hava durumu gözlemleri ve tahminleri (METAR ve TAF raporları).

Kullanılabilir istasyonlar harita üzerinde sarı ve kırmızı noktalarla gösterilir.

İstasyonun adını görmek için fareyi noktanın üzerinde gezdirin.

Sonrasında hava gözlem ve tahminlerini görmek için tıklayın.

Haritayı değiştirmek için: yaklaştırmak için siyah artı işaretli yeşil düğmeye ve uzaklaştırmak için de eksi işaretli düğmeye hızla tıklayın; bitişik haritalar için yeşil okları kullanın.


METAR-TAF: